createdAt,value
2023-01-09T00:01:14.877Z,3.68
2023-01-09T00:05:17.686Z,3.75
2023-01-09T00:09:24.031Z,3.85
2023-01-09T00:13:26.157Z,3.73
2023-01-09T00:17:28.413Z,3.74
2023-01-09T00:21:30.270Z,3.80
2023-01-09T00:25:32.352Z,3.71
2023-01-09T00:29:34.380Z,3.70
2023-01-09T00:33:41.543Z,3.68
2023-01-09T00:37:44.403Z,3.75
2023-01-09T00:41:51.378Z,3.80
2023-01-09T00:45:53.566Z,3.83
2023-01-09T00:49:58.898Z,3.69
2023-01-09T00:54:02.849Z,3.78
2023-01-09T00:58:05.564Z,3.68
2023-01-09T01:02:08.084Z,3.64
2023-01-09T01:06:28.763Z,3.74
2023-01-09T01:10:30.708Z,3.79
2023-01-09T01:14:34.997Z,3.73
2023-01-09T01:18:36.971Z,3.70
2023-01-09T01:22:38.986Z,3.71
2023-01-09T01:26:40.630Z,3.75
2023-01-09T01:30:43.895Z,3.64
2023-01-09T01:34:47.682Z,3.70
2023-01-09T01:38:49.900Z,3.75
2023-01-09T01:42:53.784Z,3.76
2023-01-09T01:46:56.830Z,3.75
2023-01-09T01:51:03.068Z,3.71
2023-01-09T01:55:08.363Z,3.74
2023-01-09T01:59:32.327Z,3.74
2023-01-09T02:03:36.609Z,3.72
2023-01-09T02:07:38.328Z,3.78
2023-01-09T02:11:49.336Z,3.73
2023-01-09T02:16:11.320Z,3.75
2023-01-09T02:20:16.055Z,3.59
2023-01-09T02:24:52.627Z,3.65
2023-01-09T02:29:00.732Z,3.78
2023-01-09T02:33:14.534Z,3.71
2023-01-09T02:37:48.851Z,3.62
2023-01-09T02:42:14.083Z,3.76
2023-01-09T02:46:20.259Z,3.82
2023-01-09T02:50:35.610Z,3.76
2023-01-09T02:54:54.566Z,3.62
2023-01-09T02:59:18.978Z,3.75
2023-01-09T03:03:36.983Z,3.81
2023-01-09T03:08:03.931Z,3.79
2023-01-09T03:12:18.338Z,3.87
2023-01-09T03:16:25.727Z,3.76
2023-01-09T03:20:29.766Z,3.84
2023-01-09T03:24:33.183Z,3.75
2023-01-09T03:28:35.112Z,3.76
2023-01-09T03:32:36.815Z,3.81
2023-01-09T03:36:38.905Z,3.86
2023-01-09T03:40:43.748Z,3.84
2023-01-09T03:44:45.837Z,3.88
2023-01-09T03:48:47.592Z,3.90
2023-01-09T03:52:49.506Z,3.87
2023-01-09T03:56:51.164Z,3.95
2023-01-09T04:00:59.675Z,3.90
2023-01-09T04:05:01.661Z,3.78
2023-01-09T04:09:03.691Z,3.82
2023-01-09T04:13:06.080Z,3.77
2023-01-09T04:17:08.070Z,3.81
2023-01-09T04:21:10.359Z,3.80
2023-01-09T04:25:12.527Z,3.81
2023-01-09T04:29:14.489Z,3.75
2023-01-09T04:33:16.413Z,3.73
2023-01-09T04:37:18.326Z,3.70
2023-01-09T04:41:39.004Z,3.80
2023-01-09T04:45:40.965Z,3.85
2023-01-09T04:49:42.892Z,3.85
2023-01-09T04:53:44.908Z,3.90
2023-01-09T04:57:46.905Z,3.99
2023-01-09T05:01:49.084Z,4.00
2023-01-09T05:05:51.132Z,3.98
2023-01-09T05:09:53.120Z,4.00
2023-01-09T05:13:55.283Z,4.01
2023-01-09T05:17:56.928Z,3.99
2023-01-09T05:21:58.868Z,4.05
2023-01-09T05:26:00.882Z,4.03
2023-01-09T05:30:02.953Z,4.08
2023-01-09T05:34:04.929Z,4.16
2023-01-09T05:38:06.903Z,4.14
2023-01-09T05:42:08.889Z,4.18
2023-01-09T05:46:10.867Z,4.23
2023-01-09T05:50:14.563Z,4.27
2023-01-09T05:54:16.617Z,4.20
2023-01-09T05:58:18.664Z,4.28
2023-01-09T06:02:20.833Z,4.34
2023-01-09T06:06:24.202Z,4.36
2023-01-09T06:10:26.228Z,4.37
2023-01-09T06:14:28.160Z,4.41
2023-01-09T06:18:30.079Z,4.44
2023-01-09T06:22:32.039Z,4.45
2023-01-09T06:26:34.009Z,4.42
2023-01-09T06:30:36.044Z,4.35
2023-01-09T06:34:37.984Z,4.22
2023-01-09T06:38:39.966Z,4.19
2023-01-09T06:42:46.298Z,3.90
2023-01-09T06:46:48.308Z,4.21
2023-01-09T06:50:50.828Z,4.24
2023-01-09T06:54:52.891Z,4.15
2023-01-09T06:58:55.706Z,4.14
2023-01-09T07:02:57.668Z,4.23
2023-01-09T07:06:59.971Z,4.20
2023-01-09T07:11:02.122Z,4.20
2023-01-09T07:15:04.790Z,4.14
2023-01-09T07:19:06.975Z,4.20
2023-01-09T07:23:12.986Z,4.19
2023-01-09T07:27:15.213Z,4.22
2023-01-09T07:31:17.314Z,4.10
2023-01-09T07:35:19.306Z,4.18
2023-01-09T07:39:21.347Z,4.27
2023-01-09T07:43:23.355Z,4.28
2023-01-09T07:47:25.308Z,4.39
2023-01-09T07:51:27.299Z,4.30
2023-01-09T07:55:29.317Z,4.40
2023-01-09T07:59:31.355Z,4.42
2023-01-09T08:03:33.774Z,4.47
2023-01-09T08:07:36.102Z,4.40
2023-01-09T08:11:38.157Z,4.42
2023-01-09T08:15:39.994Z,4.55
2023-01-09T08:19:43.896Z,4.56
2023-01-09T08:23:46.148Z,4.58
2023-01-09T08:27:48.281Z,4.66
2023-01-09T08:31:50.322Z,4.69
2023-01-09T08:35:52.350Z,4.71
2023-01-09T08:39:53.960Z,4.76
2023-01-09T08:44:14.401Z,4.87
2023-01-09T08:48:16.979Z,4.91
2023-01-09T08:52:18.931Z,4.92
2023-01-09T08:56:20.919Z,4.97
2023-01-09T09:00:24.257Z,4.99
2023-01-09T09:04:26.238Z,4.94
2023-01-09T09:08:28.245Z,4.83
2023-01-09T09:12:30.238Z,4.77
2023-01-09T09:16:32.408Z,4.84
2023-01-09T09:20:37.652Z,4.89
2023-01-09T09:24:39.684Z,4.95
2023-01-09T09:28:41.424Z,5.06
2023-01-09T09:32:43.589Z,5.01
2023-01-09T09:36:45.634Z,5.07
2023-01-09T09:41:06.373Z,5.32
2023-01-09T09:45:52.672Z,5.27
2023-01-09T09:50:26.356Z,5.35
2023-01-09T09:54:34.987Z,5.49
2023-01-09T09:58:39.771Z,5.56
2023-01-09T10:02:50.507Z,5.64
2023-01-09T10:07:24.648Z,5.76
2023-01-09T10:11:35.195Z,5.75
2023-01-09T10:15:46.265Z,5.89
2023-01-09T10:20:11.686Z,5.88
2023-01-09T10:24:29.585Z,6.01
2023-01-09T10:29:01.307Z,6.06
2023-01-09T10:33:35.560Z,5.85
2023-01-09T10:37:45.214Z,5.88
2023-01-09T10:41:47.185Z,5.89
2023-01-09T10:45:54.407Z,5.90
2023-01-09T10:49:57.343Z,5.81
2023-01-09T10:53:59.343Z,5.72
2023-01-09T11:34:17.756Z,4.92
2023-01-09T11:38:19.805Z,5.07
2023-01-09T11:42:44.594Z,5.08
2023-01-09T11:46:46.808Z,5.20
2023-01-09T11:50:56.748Z,5.29
2023-01-09T11:55:04.499Z,5.35
2023-01-09T11:59:19.379Z,5.29
2023-01-09T12:03:43.979Z,5.37
2023-01-09T12:07:57.803Z,5.46
2023-01-09T12:12:11.396Z,5.53
2023-01-09T12:16:33.545Z,5.68
2023-01-09T12:21:02.908Z,5.81
2023-01-09T12:25:14.043Z,5.79
2023-01-09T12:29:30.919Z,5.80
2023-01-09T12:34:02.755Z,5.88
2023-01-09T12:38:40.152Z,5.99
2023-01-09T12:43:03.032Z,6.08
2023-01-09T12:47:29.660Z,5.88
2023-01-09T12:51:41.414Z,5.91
2023-01-09T12:55:50.610Z,6.14
2023-01-09T12:59:56.154Z,6.09
2023-01-09T13:04:12.880Z,6.08
2023-01-09T13:08:21.659Z,6.14
2023-01-09T13:12:25.709Z,6.11
2023-01-09T13:16:33.065Z,6.05
2023-01-09T13:20:43.908Z,6.16
2023-01-09T13:25:03.920Z,6.04
2023-01-09T13:29:24.874Z,6.10
2023-01-09T13:33:33.882Z,6.19
2023-01-09T13:37:36.968Z,6.16
2023-01-09T13:42:06.950Z,6.00
2023-01-09T13:46:09.052Z,6.09
2023-01-09T13:50:10.994Z,6.11
2023-01-09T13:54:12.753Z,6.12
2023-01-09T13:58:19.336Z,6.28
2023-01-09T14:02:33.727Z,6.36
2023-01-09T14:06:36.212Z,6.40
2023-01-09T14:10:47.596Z,6.43
2023-01-09T14:14:53.710Z,6.49
2023-01-09T14:19:07.041Z,6.58
2023-01-09T14:23:35.609Z,6.60
2023-01-09T14:27:59.181Z,6.75
2023-01-09T14:32:21.259Z,6.81
2023-01-09T14:36:27.189Z,6.71
2023-01-09T14:40:30.460Z,6.69
2023-01-09T14:44:49.084Z,6.86
2023-01-09T14:49:00.597Z,6.96
2023-01-09T14:53:06.671Z,6.83
2023-01-09T14:57:25.710Z,6.64
2023-01-09T15:01:32.520Z,6.88
2023-01-09T15:05:35.356Z,6.81
2023-01-09T15:09:46.260Z,6.58
2023-01-09T15:13:50.897Z,6.65
2023-01-09T15:17:56.774Z,6.61
2023-01-09T15:22:06.500Z,6.71
2023-01-09T15:26:23.519Z,6.74
2023-01-09T15:30:34.557Z,6.65
2023-01-09T15:34:36.950Z,6.64
2023-01-09T15:38:40.235Z,6.73
2023-01-09T15:42:58.081Z,6.72
2023-01-09T15:47:01.538Z,6.83
2023-01-09T15:51:32.314Z,6.75
2023-01-09T15:55:38.497Z,6.82
2023-01-09T15:59:40.224Z,6.88
2023-01-09T16:03:42.672Z,6.85
2023-01-09T16:07:46.800Z,6.94
2023-01-09T16:11:53.120Z,7.14
2023-01-09T16:15:57.382Z,7.03
2023-01-09T16:20:13.629Z,7.06
2023-01-09T16:24:15.519Z,6.99
2023-01-09T16:28:23.052Z,7.04
2023-01-09T16:32:31.045Z,7.05
2023-01-09T16:36:36.508Z,7.06
2023-01-09T16:40:38.565Z,7.02
2023-01-09T16:44:40.535Z,6.90
2023-01-09T16:48:42.697Z,7.14
2023-01-09T16:52:47.194Z,7.18
2023-01-09T16:56:52.846Z,7.13
2023-01-09T17:00:54.859Z,6.88
2023-01-09T17:04:56.911Z,6.78
2023-01-09T17:08:58.928Z,6.78
2023-01-09T17:13:00.996Z,6.68
2023-01-09T17:17:03.108Z,6.82
2023-01-09T17:21:05.418Z,6.78
2023-01-09T17:25:32.412Z,6.82
2023-01-09T17:29:35.211Z,6.73
2023-01-09T17:33:39.842Z,6.77
2023-01-09T17:37:42.541Z,6.74
2023-01-09T17:41:44.843Z,6.78
2023-01-09T17:45:47.987Z,6.69
2023-01-09T17:49:50.127Z,6.67
2023-01-09T17:53:52.159Z,6.67
2023-01-09T17:57:54.325Z,6.87
2023-01-09T18:01:57.220Z,6.74
2023-01-09T18:05:59.667Z,6.70
2023-01-09T18:10:01.399Z,6.75
2023-01-09T18:14:03.548Z,6.87
2023-01-09T18:18:05.943Z,6.75
2023-01-09T18:22:07.974Z,6.83
2023-01-09T18:26:11.604Z,6.75
2023-01-09T18:30:13.428Z,6.80
2023-01-09T18:34:15.413Z,6.79
2023-01-09T18:38:17.559Z,6.78
2023-01-09T18:42:19.576Z,6.90
2023-01-09T18:46:24.665Z,6.97
2023-01-09T18:50:26.461Z,6.91
2023-01-09T18:54:28.560Z,6.94
2023-01-09T18:58:31.028Z,6.97
2023-01-09T19:02:32.750Z,6.95
2023-01-09T19:06:36.712Z,6.89
2023-01-09T19:10:38.327Z,6.93
2023-01-09T19:14:40.306Z,6.96
2023-01-09T19:18:42.948Z,6.89
2023-01-09T19:22:44.924Z,6.86
2023-01-09T19:26:47.866Z,6.98
2023-01-09T19:30:59.281Z,6.96
2023-01-09T19:35:01.255Z,7.02
2023-01-09T19:39:04.002Z,7.01
2023-01-09T19:43:05.973Z,7.04
2023-01-09T19:47:08.158Z,7.09
2023-01-09T19:51:11.417Z,7.12
2023-01-09T19:55:14.222Z,7.06
2023-01-09T19:59:16.261Z,7.13
2023-01-09T20:03:18.511Z,7.03
2023-01-09T20:07:21.447Z,7.01
2023-01-09T20:11:25.454Z,7.16
2023-01-09T20:15:27.147Z,6.95
2023-01-09T20:19:30.120Z,7.09
2023-01-09T20:23:34.670Z,7.06
2023-01-09T20:27:36.896Z,7.19
2023-01-09T20:31:39.041Z,7.09
2023-01-09T20:35:41.314Z,7.17
2023-01-09T20:39:43.272Z,7.11
2023-01-09T20:43:45.324Z,7.22
2023-01-09T20:47:47.008Z,7.10
2023-01-09T20:51:52.111Z,7.09
2023-01-09T20:56:03.259Z,7.13
2023-01-09T21:00:07.259Z,7.07
2023-01-09T21:04:09.261Z,6.90
2023-01-09T21:08:10.959Z,6.86
2023-01-09T21:12:27.421Z,6.73
2023-01-09T21:16:29.513Z,6.77
2023-01-09T21:20:31.529Z,6.87
2023-01-09T21:24:33.517Z,6.73
2023-01-09T21:28:45.078Z,6.92
2023-01-09T21:32:46.812Z,6.88
2023-01-09T21:36:49.171Z,6.99
2023-01-09T21:40:52.677Z,6.92
2023-01-09T21:45:13.014Z,6.99
2023-01-09T21:49:15.105Z,6.91
2023-01-09T21:53:16.811Z,6.89
2023-01-09T21:57:18.803Z,6.89
2023-01-09T22:01:20.816Z,6.65
2023-01-09T22:05:24.575Z,6.77
2023-01-09T22:09:26.629Z,6.80
2023-01-09T22:13:29.000Z,6.78
2023-01-09T22:17:31.009Z,6.86
2023-01-09T22:21:33.020Z,6.63
2023-01-09T22:25:39.010Z,6.92
2023-01-09T22:29:40.941Z,6.88
2023-01-09T22:33:42.938Z,6.83
2023-01-09T22:37:45.461Z,6.77
2023-01-09T22:41:52.443Z,6.71
2023-01-09T22:45:59.854Z,6.78
2023-01-09T22:50:01.635Z,7.06
2023-01-09T22:54:04.139Z,7.10
2023-01-09T22:58:06.153Z,7.15
2023-01-09T23:02:08.341Z,7.15
2023-01-09T23:06:14.287Z,7.09
2023-01-09T23:10:16.243Z,7.00
2023-01-09T23:14:18.223Z,7.12
2023-01-09T23:18:20.232Z,6.94
2023-01-09T23:22:22.835Z,6.98
2023-01-09T23:26:24.833Z,7.05
2023-01-09T23:30:26.471Z,6.93
2023-01-09T23:34:28.577Z,7.13
2023-01-09T23:38:30.597Z,7.07
2023-01-09T23:42:51.010Z,7.17
2023-01-09T23:46:53.541Z,7.13
2023-01-09T23:50:55.529Z,7.07
2023-01-09T23:54:57.477Z,7.05
2023-01-09T23:59:01.401Z,6.96
